createdAt,value
2022-10-05T00:00:22.334Z,100.00
2022-10-05T00:03:11.902Z,100.00
2022-10-05T00:05:57.699Z,100.00
2022-10-05T00:08:43.962Z,100.00
2022-10-05T00:11:30.160Z,100.00
2022-10-05T00:14:22.488Z,100.00
2022-10-05T00:17:10.530Z,100.00
2022-10-05T00:19:56.721Z,100.00
2022-10-05T00:22:42.389Z,100.00
2022-10-05T00:25:28.647Z,100.00
2022-10-05T00:28:28.099Z,100.00
2022-10-05T00:31:18.248Z,100.00
2022-10-05T00:34:04.280Z,100.00
2022-10-05T00:36:50.575Z,100.00
2022-10-05T00:39:37.146Z,100.00
2022-10-05T00:42:23.151Z,100.00
2022-10-05T00:45:15.203Z,100.00
2022-10-05T00:48:08.376Z,100.00
2022-10-05T00:50:54.019Z,100.00
2022-10-05T00:53:49.066Z,100.00
2022-10-05T00:56:34.823Z,100.00
2022-10-05T00:59:40.481Z,100.00
2022-10-05T01:02:34.358Z,100.00
2022-10-05T01:05:29.093Z,100.00
2022-10-05T01:08:18.245Z,100.00
2022-10-05T01:11:04.655Z,100.00
2022-10-05T01:13:50.969Z,100.00
2022-10-05T01:16:37.569Z,100.00
2022-10-05T01:19:34.783Z,100.00
2022-10-05T01:22:30.177Z,100.00
2022-10-05T01:25:28.905Z,100.00
2022-10-05T01:28:36.063Z,100.00
2022-10-05T01:31:42.925Z,100.00
2022-10-05T01:34:29.820Z,100.00
2022-10-05T01:37:34.706Z,100.00
2022-10-05T01:40:34.977Z,100.00
2022-10-05T01:43:40.586Z,100.00
2022-10-05T01:46:38.492Z,100.00
2022-10-05T01:49:28.259Z,100.00
2022-10-05T01:52:29.887Z,100.00
2022-10-05T01:55:19.012Z,100.00
2022-10-05T01:58:20.215Z,100.00
2022-10-05T02:01:10.737Z,100.00
2022-10-05T02:04:07.537Z,100.00
2022-10-05T02:06:53.374Z,100.00
2022-10-05T02:09:42.282Z,100.00
2022-10-05T02:12:29.693Z,100.00
2022-10-05T02:15:20.275Z,100.00
2022-10-05T02:18:11.148Z,100.00
2022-10-05T02:20:58.079Z,100.00
2022-10-05T02:23:44.500Z,100.00
2022-10-05T02:26:30.394Z,100.00
2022-10-05T02:29:16.692Z,100.00
2022-10-05T02:32:04.764Z,100.00
2022-10-05T02:34:51.833Z,100.00
2022-10-05T02:37:48.381Z,100.00
2022-10-05T02:40:47.165Z,100.00
2022-10-05T02:43:33.773Z,100.00
2022-10-05T02:46:29.383Z,100.00
2022-10-05T02:49:27.390Z,100.00
2022-10-05T02:52:16.904Z,100.00
2022-10-05T02:55:15.295Z,100.00
2022-10-05T02:58:19.369Z,100.00
2022-10-05T03:01:09.385Z,100.00
2022-10-05T03:04:03.835Z,100.00
2022-10-05T03:06:56.654Z,100.00
2022-10-05T03:09:46.166Z,100.00
2022-10-05T03:12:38.327Z,100.00
2022-10-05T03:15:31.311Z,100.00
2022-10-05T03:18:26.283Z,100.00
2022-10-05T03:21:17.848Z,100.00
2022-10-05T03:24:11.063Z,100.00
2022-10-05T03:27:14.493Z,100.00
2022-10-05T03:30:14.053Z,100.00
2022-10-05T03:33:14.460Z,100.00
2022-10-05T03:36:03.707Z,100.00
2022-10-05T03:38:59.457Z,100.00
2022-10-05T03:41:51.421Z,100.00
2022-10-05T03:44:43.811Z,100.00
2022-10-05T03:47:36.824Z,100.00
2022-10-05T03:50:25.827Z,100.00
2022-10-05T03:53:19.217Z,100.00
2022-10-05T03:56:07.498Z,100.00
2022-10-05T03:58:55.786Z,100.00
2022-10-05T04:01:48.037Z,100.00
2022-10-05T04:04:34.326Z,100.00
2022-10-05T04:07:33.760Z,100.00
2022-10-05T04:10:25.560Z,100.00
2022-10-05T04:13:11.749Z,100.00
2022-10-05T04:16:06.947Z,100.00
2022-10-05T04:19:03.692Z,100.00
2022-10-05T04:21:58.049Z,100.00
2022-10-05T04:24:48.253Z,100.00
2022-10-05T04:27:36.187Z,100.00
2022-10-05T04:30:22.472Z,100.00
2022-10-05T04:33:10.127Z,100.00
2022-10-05T04:36:05.361Z,100.00
2022-10-05T04:38:57.983Z,100.00
2022-10-05T04:41:47.218Z,100.00
2022-10-05T04:44:55.832Z,100.00
2022-10-05T04:48:07.262Z,100.00
2022-10-05T04:51:13.814Z,100.00
2022-10-05T04:54:05.933Z,100.00
2022-10-05T04:56:56.406Z,100.00
2022-10-05T04:59:45.092Z,100.00
2022-10-05T05:02:35.572Z,100.00
2022-10-05T05:05:29.684Z,100.00
2022-10-05T05:08:31.579Z,100.00
2022-10-05T05:11:34.989Z,100.00
2022-10-05T05:14:27.346Z,100.00
2022-10-05T05:17:17.402Z,100.00
2022-10-05T05:20:20.727Z,100.00
2022-10-05T05:23:10.312Z,100.00
2022-10-05T05:26:08.975Z,100.00
2022-10-05T05:29:14.789Z,100.00
2022-10-05T05:32:04.448Z,100.00
2022-10-05T05:34:56.519Z,100.00
2022-10-05T05:37:45.841Z,100.00
2022-10-05T05:40:31.717Z,100.00
2022-10-05T05:43:28.659Z,100.00
2022-10-05T05:46:15.897Z,100.00
2022-10-05T05:49:03.567Z,100.00
2022-10-05T05:51:54.513Z,100.00
2022-10-05T05:54:42.183Z,100.00
2022-10-05T05:57:30.009Z,100.00
2022-10-05T06:00:21.132Z,100.00
2022-10-05T06:03:19.438Z,100.00
2022-10-05T06:06:32.493Z,100.00
2022-10-05T06:09:18.560Z,100.00
2022-10-05T06:12:28.811Z,100.00
2022-10-05T06:15:15.128Z,100.00
2022-10-05T06:18:02.872Z,100.00
2022-10-05T06:20:51.984Z,100.00
2022-10-05T06:23:58.151Z,100.00
2022-10-05T06:27:00.276Z,100.00
2022-10-05T06:29:46.093Z,100.00
2022-10-05T06:32:41.718Z,100.00
2022-10-05T06:39:49.259Z,100.00
2022-10-05T06:42:59.290Z,100.00
2022-10-05T06:45:53.093Z,100.00
2022-10-05T06:48:49.222Z,100.00
2022-10-05T06:51:56.935Z,100.00
2022-10-05T06:54:46.481Z,100.00
2022-10-05T06:58:01.130Z,100.00
2022-10-05T07:00:53.345Z,100.00
2022-10-05T07:03:58.567Z,100.00
2022-10-05T07:06:52.685Z,100.00
2022-10-05T07:10:17.094Z,100.00
2022-10-05T07:13:41.337Z,100.00
2022-10-05T07:17:06.511Z,100.00
2022-10-05T07:20:20.049Z,100.00
2022-10-05T07:23:24.990Z,100.00
2022-10-05T07:26:32.481Z,100.00
2022-10-05T07:29:28.393Z,100.00
2022-10-05T07:32:31.203Z,100.00
2022-10-05T07:35:38.998Z,100.00
2022-10-05T07:38:32.651Z,100.00
2022-10-05T07:41:25.878Z,100.00
2022-10-05T07:44:27.594Z,100.00
2022-10-05T07:47:41.468Z,100.00
2022-10-05T07:50:36.863Z,99.86
2022-10-05T07:53:28.768Z,98.99
2022-10-05T07:56:21.967Z,98.48
2022-10-05T07:59:55.523Z,96.93
2022-10-05T08:02:52.573Z,94.81
2022-10-05T08:05:41.008Z,95.45
2022-10-05T08:08:48.265Z,95.50
2022-10-05T08:11:43.978Z,93.46
2022-10-05T08:14:58.986Z,93.73
2022-10-05T08:18:00.616Z,92.87
2022-10-05T08:20:53.487Z,91.89
2022-10-05T08:23:42.984Z,91.02
2022-10-05T08:26:33.062Z,91.45
2022-10-05T08:29:32.716Z,90.96
2022-10-05T08:32:21.866Z,89.36
2022-10-05T08:35:25.392Z,88.01
2022-10-05T08:38:18.580Z,85.29
2022-10-05T08:41:23.672Z,87.09
2022-10-05T08:44:12.404Z,85.53
2022-10-05T08:47:05.462Z,83.76
2022-10-05T08:50:10.236Z,84.44
2022-10-05T08:53:15.649Z,82.10
2022-10-05T08:56:04.696Z,82.69
2022-10-05T08:58:57.734Z,82.01
2022-10-05T09:02:05.039Z,79.98
2022-10-05T09:04:51.449Z,81.78
2022-10-05T09:07:40.298Z,80.08
2022-10-05T09:11:03.118Z,84.77
2022-10-05T09:14:08.328Z,80.63
2022-10-05T09:17:12.058Z,80.09
2022-10-05T09:20:00.534Z,77.20
2022-10-05T09:22:55.476Z,75.52
2022-10-05T09:25:43.353Z,75.45
2022-10-05T09:28:31.922Z,75.54
2022-10-05T09:31:27.244Z,71.22
2022-10-05T09:34:36.553Z,67.52
2022-10-05T09:37:22.652Z,64.97
2022-10-05T09:40:12.013Z,67.56
2022-10-05T09:43:10.066Z,64.81
2022-10-05T09:45:56.257Z,61.79
2022-10-05T09:48:48.108Z,65.78
2022-10-05T09:51:46.502Z,59.71
2022-10-05T09:54:50.770Z,57.74
2022-10-05T09:57:42.288Z,56.03
2022-10-05T10:00:54.111Z,64.76
2022-10-05T10:03:52.587Z,66.56
2022-10-05T10:06:38.297Z,64.40
2022-10-05T10:09:26.955Z,66.00
2022-10-05T10:12:12.987Z,68.59
2022-10-05T10:15:18.549Z,73.04
2022-10-05T10:18:23.437Z,64.19
2022-10-05T10:21:48.993Z,68.64
2022-10-05T10:24:35.474Z,63.50
2022-10-05T10:27:40.245Z,61.94
2022-10-05T10:30:35.743Z,55.51
2022-10-05T10:33:27.561Z,58.00
2022-10-05T10:36:17.334Z,61.01
2022-10-05T10:39:06.244Z,57.33
2022-10-05T10:42:12.256Z,55.72
2022-10-05T10:45:16.772Z,55.38
2022-10-05T10:48:04.228Z,62.32
2022-10-05T10:50:57.073Z,64.65
2022-10-05T10:54:03.589Z,69.99
2022-10-05T10:56:58.899Z,67.66
2022-10-05T10:59:47.881Z,63.40
2022-10-05T11:02:37.513Z,64.75
2022-10-05T11:05:38.300Z,63.78
2022-10-05T11:08:43.514Z,61.88
2022-10-05T11:11:30.928Z,64.50
2022-10-05T11:14:36.028Z,63.79
2022-10-05T11:17:31.774Z,65.59
2022-10-05T11:20:28.023Z,66.06
2022-10-05T11:23:28.155Z,67.68
2022-10-05T11:26:20.192Z,66.91
2022-10-05T11:29:30.290Z,66.58
2022-10-05T11:32:25.672Z,66.56
2022-10-05T11:35:14.468Z,65.82
2022-10-05T11:38:00.880Z,65.32
2022-10-05T11:40:55.817Z,63.05
2022-10-05T11:44:04.600Z,57.93
2022-10-05T11:46:52.779Z,59.90
2022-10-05T11:49:59.390Z,66.06
2022-10-05T11:52:51.938Z,64.51
2022-10-05T11:55:57.814Z,64.38
2022-10-05T11:58:47.673Z,63.27
2022-10-05T12:01:37.882Z,59.73
2022-10-05T12:04:30.488Z,59.39
2022-10-05T12:07:19.789Z,57.52
2022-10-05T12:10:17.023Z,60.19
2022-10-05T12:13:24.687Z,61.33
2022-10-05T12:16:17.276Z,58.51
2022-10-05T12:19:04.868Z,63.40
2022-10-05T12:21:57.061Z,57.52
2022-10-05T12:24:47.722Z,58.90
2022-10-05T12:27:36.263Z,60.13
2022-10-05T12:30:28.676Z,61.80
2022-10-05T12:33:18.266Z,61.86
2022-10-05T12:36:21.365Z,57.00
2022-10-05T12:39:20.032Z,59.09
2022-10-05T12:42:26.005Z,57.94
2022-10-05T12:45:12.079Z,57.71
2022-10-05T12:48:36.606Z,58.39
2022-10-05T12:51:28.819Z,56.15
2022-10-05T12:54:14.678Z,53.48
2022-10-05T12:57:09.845Z,54.81
2022-10-05T13:00:08.250Z,54.18
2022-10-05T13:02:57.445Z,52.84
2022-10-05T13:05:44.783Z,49.58
2022-10-05T13:08:34.167Z,48.36
2022-10-05T13:11:29.060Z,47.98
2022-10-05T13:14:18.260Z,45.75
2022-10-05T13:17:10.434Z,50.43
2022-10-05T13:19:57.499Z,47.58
2022-10-05T13:22:43.623Z,47.50
2022-10-05T13:25:31.499Z,46.18
2022-10-05T13:28:20.092Z,48.58
2022-10-05T13:31:07.005Z,47.31
2022-10-05T13:34:05.393Z,52.70
2022-10-05T13:37:00.368Z,50.05
2022-10-05T13:39:46.314Z,50.76
2022-10-05T13:42:53.817Z,52.35
2022-10-05T13:45:41.467Z,49.14
2022-10-05T13:48:30.945Z,50.51
2022-10-05T13:51:46.277Z,47.94
2022-10-05T13:54:37.365Z,49.61
2022-10-05T13:57:22.839Z,52.23
2022-10-05T14:00:16.572Z,50.56
2022-10-05T14:03:02.656Z,50.11
2022-10-05T14:05:57.514Z,51.33
2022-10-05T14:08:48.538Z,57.30
2022-10-05T14:11:34.995Z,53.14
2022-10-05T14:14:30.441Z,54.78
2022-10-05T14:17:36.369Z,53.45
2022-10-05T14:20:23.793Z,53.24
2022-10-05T14:23:18.531Z,53.21
2022-10-05T14:26:17.935Z,52.00
2022-10-05T14:29:17.750Z,53.24
2022-10-05T14:32:14.535Z,52.89
2022-10-05T14:35:05.229Z,54.39
2022-10-05T14:37:56.199Z,54.35
2022-10-05T14:40:42.133Z,53.38
2022-10-05T14:43:28.417Z,53.05
2022-10-05T14:46:23.406Z,53.44
2022-10-05T14:49:25.753Z,52.30
2022-10-05T14:52:44.931Z,54.08
2022-10-05T14:55:55.770Z,54.79
2022-10-05T14:59:00.776Z,53.63
2022-10-05T15:01:55.367Z,55.35
2022-10-05T15:04:44.719Z,57.86
2022-10-05T15:07:41.405Z,57.15
2022-10-05T15:10:29.458Z,57.48
2022-10-05T15:13:16.473Z,56.34
2022-10-05T15:16:05.370Z,56.67
2022-10-05T15:19:01.546Z,59.24
2022-10-05T15:22:06.128Z,59.27
2022-10-05T15:24:57.750Z,59.93
2022-10-05T15:27:53.995Z,63.50
2022-10-05T15:30:41.367Z,63.42
2022-10-05T15:33:50.669Z,63.44
2022-10-05T15:36:43.375Z,65.32
2022-10-05T15:39:35.561Z,66.14
2022-10-05T15:42:43.837Z,64.56
2022-10-05T15:45:32.388Z,65.45
2022-10-05T15:48:29.165Z,66.14
2022-10-05T15:51:15.333Z,67.48
2022-10-05T15:54:31.874Z,67.42
2022-10-05T15:57:36.699Z,68.56
2022-10-05T16:00:23.198Z,66.51
2022-10-05T16:03:24.744Z,67.24
2022-10-05T16:06:33.783Z,67.50
2022-10-05T16:09:23.222Z,68.63
2022-10-05T16:12:09.780Z,68.50
2022-10-05T16:14:59.809Z,67.82
2022-10-05T16:17:57.973Z,69.76
2022-10-05T16:20:52.309Z,70.32
2022-10-05T16:23:53.325Z,70.81
2022-10-05T16:26:59.191Z,70.75
2022-10-05T16:29:57.425Z,70.95
2022-10-05T16:32:50.802Z,69.73
2022-10-05T16:35:44.351Z,69.76
2022-10-05T16:38:46.960Z,70.69
2022-10-05T16:41:39.690Z,69.65
2022-10-05T16:44:44.629Z,69.75
2022-10-05T16:47:33.735Z,67.65
2022-10-05T16:50:29.176Z,67.78
2022-10-05T16:53:17.110Z,68.47
2022-10-05T16:56:04.356Z,68.05
2022-10-05T16:58:50.396Z,68.29
2022-10-05T17:01:42.251Z,70.69
2022-10-05T17:04:28.301Z,71.32
2022-10-05T17:07:36.317Z,71.97
2022-10-05T17:10:41.134Z,72.61
2022-10-05T17:13:46.213Z,74.25
2022-10-05T17:16:33.176Z,73.33
2022-10-05T17:19:25.428Z,73.08
2022-10-05T17:22:23.607Z,72.62
2022-10-05T17:25:12.450Z,72.02
2022-10-05T17:28:18.655Z,72.04
2022-10-05T17:31:18.202Z,72.40
2022-10-05T17:34:10.598Z,72.56
2022-10-05T17:36:59.763Z,74.61
2022-10-05T17:39:46.984Z,78.42
2022-10-05T17:42:34.346Z,76.86
2022-10-05T17:45:20.163Z,79.27
2022-10-05T17:48:09.493Z,83.93
2022-10-05T17:51:14.367Z,82.89
2022-10-05T17:54:37.129Z,81.80
2022-10-05T17:57:24.623Z,83.85
2022-10-05T18:00:34.331Z,82.40
2022-10-05T18:03:40.704Z,80.80
2022-10-05T18:06:26.453Z,83.04
2022-10-05T18:09:17.503Z,85.50
2022-10-05T18:12:19.373Z,84.32
2022-10-05T18:15:05.780Z,84.67
2022-10-05T18:17:51.744Z,84.01
2022-10-05T18:20:39.833Z,82.91
2022-10-05T18:23:26.309Z,84.37
2022-10-05T18:26:20.504Z,86.21
2022-10-05T18:29:39.461Z,85.33
2022-10-05T18:32:45.367Z,85.34
2022-10-05T18:35:39.929Z,85.41
2022-10-05T18:38:32.290Z,86.12
2022-10-05T18:41:38.474Z,85.82
2022-10-05T18:44:45.085Z,85.63
2022-10-05T18:47:57.311Z,83.45
2022-10-05T18:50:43.506Z,83.73
2022-10-05T18:56:58.551Z,86.09
2022-10-05T18:59:46.506Z,86.47
2022-10-05T19:02:36.660Z,84.24
2022-10-05T19:05:48.925Z,85.29
2022-10-05T19:08:42.831Z,84.21
2022-10-05T19:11:28.486Z,83.92
2022-10-05T19:14:21.059Z,84.30
2022-10-05T19:17:26.349Z,83.23
2022-10-05T19:20:17.397Z,85.63
2022-10-05T19:23:12.533Z,83.87
2022-10-05T19:26:03.280Z,85.35
2022-10-05T19:29:05.361Z,85.24
2022-10-05T19:32:00.002Z,85.60
2022-10-05T19:34:49.880Z,85.48
2022-10-05T19:37:48.347Z,85.06
2022-10-05T19:40:43.472Z,83.69
2022-10-05T19:43:29.936Z,84.07
2022-10-05T19:46:19.104Z,82.33
2022-10-05T19:49:08.910Z,87.59
2022-10-05T19:51:55.834Z,90.40
2022-10-05T19:54:42.622Z,90.92
2022-10-05T19:57:28.774Z,88.96
2022-10-05T20:00:20.914Z,92.04
2022-10-05T20:03:12.113Z,88.32
2022-10-05T20:06:01.747Z,91.87
2022-10-05T20:08:48.684Z,90.71
2022-10-05T20:11:35.074Z,89.15
2022-10-05T20:14:28.873Z,91.05
2022-10-05T20:17:44.382Z,93.48
2022-10-05T20:20:35.735Z,90.82
2022-10-05T20:23:25.283Z,88.31
2022-10-05T20:26:49.884Z,97.27
2022-10-05T20:29:40.169Z,98.32
2022-10-05T20:32:30.589Z,100.00
2022-10-05T20:35:23.026Z,100.00
2022-10-05T20:38:08.908Z,100.00
2022-10-05T20:40:54.717Z,100.00
2022-10-05T20:43:40.994Z,99.66
2022-10-05T20:46:26.848Z,95.03
2022-10-05T20:49:13.400Z,96.01
2022-10-05T20:51:59.406Z,98.79
2022-10-05T20:57:42.097Z,98.87
2022-10-05T21:00:48.708Z,100.00
2022-10-05T21:03:34.579Z,97.73
2022-10-05T21:06:21.411Z,99.73
2022-10-05T21:09:11.333Z,98.09
2022-10-05T21:11:57.942Z,99.70
2022-10-05T21:14:43.631Z,98.16
2022-10-05T21:17:29.757Z,97.58
2022-10-05T21:20:15.650Z,93.91
2022-10-05T21:23:02.164Z,93.08
2022-10-05T21:25:48.693Z,91.01
2022-10-05T21:28:34.933Z,93.33
2022-10-05T21:31:20.859Z,93.64
2022-10-05T21:34:07.325Z,92.22
2022-10-05T21:36:53.518Z,90.95
2022-10-05T21:39:39.933Z,90.20
2022-10-05T21:42:26.043Z,93.00
2022-10-05T21:45:12.344Z,94.37
2022-10-05T21:47:58.399Z,94.56
2022-10-05T21:50:44.944Z,93.51
2022-10-05T21:53:31.048Z,94.74
2022-10-05T21:56:17.354Z,96.76
2022-10-05T21:59:03.994Z,95.04
2022-10-05T22:01:49.993Z,92.34
2022-10-05T22:04:35.870Z,92.49
2022-10-05T22:07:21.684Z,92.42
2022-10-05T22:10:07.814Z,92.14
2022-10-05T22:12:53.899Z,91.45
2022-10-05T22:15:40.632Z,92.39
2022-10-05T22:18:26.972Z,94.39
2022-10-05T22:21:13.658Z,93.66
2022-10-05T22:24:00.269Z,92.67
2022-10-05T22:26:47.071Z,93.02
2022-10-05T22:29:32.979Z,94.87
2022-10-05T22:32:19.574Z,97.23
2022-10-05T22:35:09.188Z,99.26
2022-10-05T22:37:57.726Z,98.81
2022-10-05T22:40:43.688Z,96.91
2022-10-05T22:43:30.174Z,95.37
2022-10-05T22:46:16.095Z,95.99
2022-10-05T22:49:02.646Z,94.90
2022-10-05T22:51:49.317Z,94.42
2022-10-05T22:54:37.317Z,93.09
2022-10-05T22:57:23.225Z,92.17
2022-10-05T23:00:10.502Z,92.84
2022-10-05T23:02:56.322Z,93.59
2022-10-05T23:05:42.813Z,92.91
2022-10-05T23:08:30.497Z,94.37
2022-10-05T23:11:18.272Z,94.32
2022-10-05T23:14:04.056Z,96.31
2022-10-05T23:16:50.405Z,96.09
2022-10-05T23:19:36.068Z,96.35
2022-10-05T23:22:21.986Z,94.75
2022-10-05T23:25:07.650Z,94.90
2022-10-05T23:27:53.702Z,94.91
2022-10-05T23:30:39.711Z,95.95
2022-10-05T23:33:26.196Z,95.52
2022-10-05T23:36:21.817Z,96.43
2022-10-05T23:39:07.672Z,94.45
2022-10-05T23:41:53.503Z,95.12
2022-10-05T23:44:40.100Z,96.47
2022-10-05T23:47:25.928Z,96.67
2022-10-05T23:50:11.973Z,95.37
2022-10-05T23:52:57.795Z,94.64
2022-10-05T23:55:44.194Z,93.88
2022-10-05T23:58:30.091Z,93.18
